^^
Station Historical Data
Daily Summary for August 12, 2017 Units:  English    Metric   Both
« Previous Day
Next Day »
Daily Weekly Monthly Yearly Custom
  High: Low: Average:
Temperature: 78.2 °F 61.7 °F 70.3 °F
Dew Point: 70.0 °F 60.0 °F 65.6 °F
Humidity: 97% 71% 86%
Wind Speed: 6.0mph 0.0mph 0.8mph
Wind Gust: 12.0mph - -
Wind- - SW
Pressure: 30.03 in 29.87 in -
Precipitation: 0.22 in    
Historical Graphs
 
 
Tabular Data for August 12, 2017
Time Temperature Dew Point Pressure Wind Wind Speed Wind Gust Humidity Rainfall Rate (Hourly) Conditions
00:00 67.2 °F 64.5 °F 30.01 in Calm   1.0 mph 91% 0.00 in -DZ
00:15 67.3 °F 64.9 °F 30.01 in Calm   1.0 mph 92% 0.00 in -DZ
00:30 67.2 °F 64.8 °F 30.01 in Calm   1.0 mph 92% 0.00 in -DZ
00:45 67.2 °F 64.8 °F 30.01 in Calm   1.0 mph 92% 0.00 in -DZ
01:00 67.1 °F 65.0 °F 30.01 in Calm   1.0 mph 93% 0.00 in -DZ
02:15 65.2 °F 62.8 °F 30.03 in Calm   4.0 mph 92% 0.06 in -DZ
02:30 64.9 °F 62.8 °F 30.01 in Calm   3.0 mph 93% 0.06 in -DZ
02:45 64.5 °F 62.7 °F 30.03 in Calm   2.0 mph 94% 0.00 in -DZ
03:00 64.3 °F 62.8 °F 30.01 in Calm   2.0 mph 95% 0.00 in -DZ
03:15 63.8 °F 62.4 °F 30.00 in Calm   1.0 mph 95% 0.04 in -RA
03:30 62.9 °F 61.2 °F 29.97 in NW 1.0 mph 4.0 mph 94% 0.06 in -RA
03:45 62.0 °F 60.3 °F 29.97 in NNW 1.0 mph 4.0 mph 94% 0.00 in -RA
04:00 61.8 °F 60.0 °F 29.97 in Calm   4.0 mph 94% 0.00 in -RA
04:15 61.7 °F 60.0 °F 29.98 in NW 1.0 mph 3.0 mph 94% 0.00 in -RA
04:30 61.8 °F 60.4 °F 29.97 in Calm   2.0 mph 95% 0.00 in -RA
04:45 61.7 °F 60.3 °F 29.96 in Calm   2.0 mph 95% 0.00 in -RA
05:00 61.7 °F 60.3 °F 29.97 in Calm   2.0 mph 95% 0.00 in -RA
05:30 61.8 °F 60.4 °F 29.97 in Calm   1.0 mph 95% 0.00 in BKN
05:45 61.9 °F 60.7 °F 29.97 in Calm     96% 0.00 in BKN
06:00 62.0 °F 60.8 °F 29.97 in Calm     96% 0.00 in BKN
06:15 61.7 °F 60.5 °F 29.97 in Calm     96% 0.00 in BKN
06:30 61.8 °F 60.6 °F 29.97 in Calm   1.0 mph 96% 0.00 in BKN
06:45 61.9 °F 60.8 °F 29.97 in Calm   1.0 mph 96% 0.00 in BKN
07:00 62.1 °F 60.9 °F 29.96 in Calm   2.0 mph 96% 0.00 in BKN
07:15 61.8 °F 60.6 °F 29.97 in Calm   1.0 mph 96% 0.00 in FEW
07:30 62.0 °F 60.8 °F 29.97 in Calm     96% 0.00 in FEW
07:45 62.0 °F 60.8 °F 29.97 in Calm     96% 0.00 in FEW
08:00 62.6 °F 61.7 °F 29.97 in Calm     97% 0.00 in FEW
08:15 64.1 °F 63.2 °F 29.97 in Calm   1.0 mph 97% 0.00 in CLR
08:30 65.7 °F 64.2 °F 29.97 in Calm   1.0 mph 95% 0.00 in CLR
08:45 67.2 °F 64.8 °F 29.96 in Calm   2.0 mph 92% 0.00 in CLR
09:15 68.8 °F 65.1 °F 29.95 in Calm   2.0 mph 88% 0.00 in FEW
09:30 69.7 °F 65.4 °F 29.96 in Calm   2.0 mph 86% 0.00 in FEW
09:45 70.6 °F 65.5 °F 29.95 in SW 1.0 mph 4.0 mph 84% 0.00 in FEW
10:00 71.1 °F 65.6 °F 29.95 in West 2.0 mph 5.0 mph 83% 0.00 in FEW
10:15 71.6 °F 65.8 °F 29.96 in SW 1.0 mph 4.0 mph 82% 0.00 in SCT
10:30 71.8 °F 65.7 °F 29.96 in SW 3.0 mph 9.0 mph 81% 0.00 in SCT
10:45 73.2 °F 66.6 °F 29.96 in SW 1.0 mph 6.0 mph 80% 0.00 in SCT
11:00 73.3 °F 66.0 °F 29.96 in SSW 2.0 mph 4.0 mph 78% 0.00 in SCT
11:15 73.1 °F 66.2 °F 29.95 in South 2.0 mph 4.0 mph 79% 0.00 in FEW
11:30 73.3 °F 66.8 °F 29.95 in Calm   4.0 mph 80% 0.00 in FEW
11:45 73.5 °F 66.5 °F 29.95 in Calm   4.0 mph 79% 0.00 in FEW
12:00 73.6 °F 66.7 °F 29.95 in SSW 1.0 mph 4.0 mph 79% 0.00 in FEW
12:15 74.1 °F 67.1 °F 29.95 in Calm   4.0 mph 79% 0.00 in SCT
12:30 73.9 °F 66.6 °F 29.95 in SSW 1.0 mph 5.0 mph 78% 0.00 in SCT
12:45 73.7 °F 66.0 °F 29.95 in Calm   6.0 mph 77% 0.00 in SCT
13:00 74.5 °F 66.4 °F 29.95 in Calm   5.0 mph 76% 0.00 in SCT
13:15 74.7 °F 66.6 °F 29.94 in Calm   4.0 mph 76% 0.00 in SCT
13:30 75.0 °F 67.3 °F 29.94 in South 1.0 mph 5.0 mph 77% 0.00 in SCT
13:45 74.6 °F 66.9 °F 29.94 in Calm   5.0 mph 77% 0.00 in SCT
14:00 75.3 °F 67.2 °F 29.94 in SSW 1.0 mph 4.0 mph 76% 0.00 in SCT
14:15 75.1 °F 67.4 °F 29.93 in Calm   5.0 mph 77% 0.00 in BKN
14:30 75.0 °F 67.3 °F 29.93 in South 3.0 mph 6.0 mph 77% 0.00 in BKN
14:45 75.5 °F 68.5 °F 29.92 in Calm   4.0 mph 79% 0.00 in BKN
15:00 76.5 °F 68.4 °F 29.92 in SSW 2.0 mph 7.0 mph 76% 0.00 in BKN
15:15 76.4 °F 68.7 °F 29.93 in WSW 1.0 mph 7.0 mph 77% 0.00 in BKN
15:30 75.9 °F 67.8 °F 29.92 in SW 2.0 mph 7.0 mph 76% 0.00 in BKN
15:45 77.2 °F 68.3 °F 29.92 in South 1.0 mph 7.0 mph 74% 0.00 in BKN
16:00 77.3 °F 68.4 °F 29.91 in SW 3.0 mph 8.0 mph 74% 0.00 in BKN
16:15 78.2 °F 68.4 °F 29.90 in South 2.0 mph 8.0 mph 72% 0.00 in SCT
16:30 77.9 °F 68.1 °F 29.90 in SW 2.0 mph 12.0 mph 72% 0.00 in SCT
16:45 78.0 °F 69.0 °F 29.90 in SW 3.0 mph 12.0 mph 74% 0.00 in SCT
17:00 78.0 °F 68.3 °F 29.89 in SSW 2.0 mph 12.0 mph 72% 0.00 in SCT
17:15 78.0 °F 68.2 °F 29.89 in SW 3.0 mph 9.0 mph 72% 0.00 in SCT
17:30 77.7 °F 67.5 °F 29.89 in SW 2.0 mph 10.0 mph 71% 0.00 in SCT
17:45 76.4 °F 67.5 °F 29.88 in SSW 6.0 mph 12.0 mph 74% 0.00 in SCT
18:00 75.9 °F 68.2 °F 29.88 in SSW 2.0 mph 8.0 mph 77% 0.00 in SCT
18:15 75.7 °F 68.0 °F 29.89 in SSW 3.0 mph 6.0 mph 77% 0.00 in BKN
18:30 75.4 °F 68.1 °F 29.88 in South 1.0 mph 6.0 mph 78% 0.00 in BKN
18:45 75.1 °F 68.1 °F 29.88 in SSW 2.0 mph 5.0 mph 79% 0.00 in BKN
19:00 74.6 °F 67.7 °F 29.89 in SSW 2.0 mph 5.0 mph 79% 0.00 in BKN
19:15 74.3 °F 67.7 °F 29.89 in South 1.0 mph 4.0 mph 80% 0.00 in BKN
19:30 74.0 °F 67.7 °F 29.87 in Calm   4.0 mph 81% 0.00 in BKN
19:45 73.7 °F 67.9 °F 29.88 in SW 1.0 mph 3.0 mph 82% 0.00 in BKN
20:00 73.7 °F 67.9 °F 29.89 in SSW 1.0 mph 4.0 mph 82% 0.00 in BKN
20:15 73.3 °F 68.5 °F 29.87 in Calm   5.0 mph 85% 0.00 in SCT
20:30 72.8 °F 68.7 °F 29.87 in Calm   5.0 mph 87% 0.00 in SCT
20:45 72.4 °F 68.6 °F 29.88 in SW 3.0 mph 7.0 mph 88% 0.00 in SCT
21:00 72.0 °F 68.6 °F 29.89 in Calm   6.0 mph 89% 0.00 in SCT
21:15 71.6 °F 68.5 °F 29.89 in Calm   3.0 mph 90% 0.00 in SCT
21:30 71.3 °F 68.5 °F 29.88 in Calm   3.0 mph 91% 0.00 in SCT
21:45 71.0 °F 68.2 °F 29.89 in Calm   2.0 mph 91% 0.00 in SCT
22:00 70.8 °F 68.7 °F 29.88 in Calm   2.0 mph 93% 0.00 in SCT
22:15 70.9 °F 68.8 °F 29.89 in Calm   2.0 mph 93% 0.00 in BKN
22:30 71.1 °F 69.0 °F 29.88 in Calm   3.0 mph 93% 0.00 in BKN
22:45 71.2 °F 69.3 °F 29.88 in Calm   3.0 mph 94% 0.00 in BKN
23:00 71.5 °F 69.7 °F 29.88 in Calm   3.0 mph 94% 0.00 in BKN
23:30 71.8 °F 70.0 °F 29.88 in Calm   2.0 mph 94% 0.00 in BKN
TarryTown NY Weather
Compliments of Weather Underground - 1.5 mb